Forside
METAR-TAF:

METAR-TAF

Lufthavne :

Greater Kankakee Airport

Kankakee, Illinois, USA

Breddekreds: 41-04-17N, længdekreds: 087-50-47W, højde: 192 m

Aktuelle vejr

Denne rapport blev lavet for 22 minutter siden, kl. 11:18 UTC
Vind 6 kt fra østsydøst
Temperatur 2°C
Fugtighed 93%
Tryk 1025 hPa
Sigt: 16.1 km
Spredte skyer i en højde af 2600 ft
Brudte skyer i en højde af 4400 ft
Overskyet i en højde af 5000 ft
let regn

METAR: KIKK 241118Z AUTO 12006KT 10SM -RA SCT026 BKN044 OVC050 02/01 A3027 RMK AO2 P0001

Tid: 05:40 (11:40 UTC)


TAF: fraværende

Vejrobservationer og prognoser fra mere end 4000 lufthavne (METAR og TAF).

De gule og røde prikker repræsenterer de meteorologiske stationer.

Flyt musen over at se navnet på stationen.

Så klik over at se vejr observationer og prognoser.

At skifte det kort: Klik på de grønne knapper med et sort kors for at zoome ind; på den grønne knap med en bindestreg for at zoome ud; eller på de grønne pile for tilstødende kort.


METAR-TAF: